sensor_id;sensor_type;location;lat;lon;timestamp;pressure;altitude;pressure_sealevel;temperature;humidity
18755;BME280;35061;47.664;9.166;2023-11-19T00:00:20;101841.84;;;7.15;100.00
18755;BME280;35061;47.664;9.166;2023-11-19T00:02:48;101840.99;;;7.18;100.00
18755;BME280;35061;47.664;9.166;2023-11-19T00:05:16;101833.14;;;7.22;100.00
18755;BME280;35061;47.664;9.166;2023-11-19T00:07:44;101833.05;;;7.26;100.00
18755;BME280;35061;47.664;9.166;2023-11-19T00:10:14;101823.59;;;7.29;100.00
18755;BME280;35061;47.664;9.166;2023-11-19T00:12:49;101812.54;;;7.31;100.00
18755;BME280;35061;47.664;9.166;2023-11-19T00:15:18;101816.47;;;7.37;100.00
18755;BME280;35061;47.664;9.166;2023-11-19T00:17:47;101796.88;;;7.39;100.00
18755;BME280;35061;47.664;9.166;2023-11-19T00:20:18;101782.46;;;7.47;100.00
18755;BME280;35061;47.664;9.166;2023-11-19T00:22:47;101779.52;;;7.50;100.00
18755;BME280;35061;47.664;9.166;2023-11-19T00:25:21;101770.06;;;7.53;100.00
18755;BME280;35061;47.664;9.166;2023-11-19T00:27:50;101768.37;;;7.56;100.00
18755;BME280;35061;47.664;9.166;2023-11-19T00:30:19;101774.74;;;7.60;100.00
18755;BME280;35061;47.664;9.166;2023-11-19T00:32:47;101772.71;;;7.61;100.00
18755;BME280;35061;47.664;9.166;2023-11-19T00:35:15;101768.52;;;7.65;100.00
18755;BME280;35061;47.664;9.166;2023-11-19T00:37:43;101761.89;;;7.68;100.00
18755;BME280;35061;47.664;9.166;2023-11-19T00:40:13;101764.31;;;7.70;100.00
18755;BME280;35061;47.664;9.166;2023-11-19T00:42:43;101754.86;;;7.73;100.00
18755;BME280;35061;47.664;9.166;2023-11-19T00:45:11;101764.99;;;7.74;100.00
18755;BME280;35061;47.664;9.166;2023-11-19T00:47:40;101773.46;;;7.78;100.00
18755;BME280;35061;47.664;9.166;2023-11-19T00:50:08;101761.14;;;7.81;100.00
18755;BME280;35061;47.664;9.166;2023-11-19T00:52:37;101752.51;;;7.85;100.00
18755;BME280;35061;47.664;9.166;2023-11-19T00:55:06;101733.67;;;7.87;100.00
18755;BME280;35061;47.664;9.166;2023-11-19T00:57:35;101727.98;;;7.87;100.00
18755;BME280;35061;47.664;9.166;2023-11-19T01:00:05;101748.61;;;7.91;100.00
18755;BME280;35061;47.664;9.166;2023-11-19T01:02:41;101769.28;;;7.95;100.00
18755;BME280;35061;47.664;9.166;2023-11-19T01:05:09;101774.09;;;7.99;100.00
18755;BME280;35061;47.664;9.166;2023-11-19T01:07:37;101763.03;;;8.01;100.00
18755;BME280;35061;47.664;9.166;2023-11-19T01:10:05;101760.09;;;8.04;100.00
18755;BME280;35061;47.664;9.166;2023-11-19T01:12:35;101754.73;;;8.06;100.00
18755;BME280;35061;47.664;9.166;2023-11-19T01:15:05;101751.03;;;8.06;100.00
18755;BME280;35061;47.664;9.166;2023-11-19T01:17:33;101753.13;;;8.05;100.00
18755;BME280;35061;47.664;9.166;2023-11-19T01:20:01;101766.56;;;8.05;100.00
18755;BME280;35061;47.664;9.166;2023-11-19T01:22:28;101775.46;;;8.07;100.00
18755;BME280;35061;47.664;9.166;2023-11-19T01:24:56;101758.00;;;8.05;100.00
18755;BME280;35061;47.664;9.166;2023-11-19T01:27:25;101759.99;;;8.08;100.00
18755;BME280;35061;47.664;9.166;2023-11-19T01:29:54;101754.95;;;8.12;100.00
18755;BME280;35061;47.664;9.166;2023-11-19T01:32:22;101737.49;;;8.10;100.00
18755;BME280;35061;47.664;9.166;2023-11-19T01:34:51;101743.97;;;8.10;100.00
18755;BME280;35061;47.664;9.166;2023-11-19T01:37:19;101745.24;;;8.09;100.00
18755;BME280;35061;47.664;9.166;2023-11-19T01:39:48;101750.51;;;8.11;100.00
18755;BME280;35061;47.664;9.166;2023-11-19T01:42:24;101757.80;;;8.12;100.00
18755;BME280;35061;47.664;9.166;2023-11-19T01:44:58;101757.80;;;8.12;100.00
18755;BME280;35061;47.664;9.166;2023-11-19T01:47:30;101751.66;;;8.14;100.00
18755;BME280;35061;47.664;9.166;2023-11-19T01:49:59;101736.13;;;8.15;100.00
18755;BME280;35061;47.664;9.166;2023-11-19T01:52:27;101719.45;;;8.13;100.00
18755;BME280;35061;47.664;9.166;2023-11-19T01:54:56;101725.85;;;8.17;100.00
18755;BME280;35061;47.664;9.166;2023-11-19T01:57:24;101733.96;;;8.19;100.00
18755;BME280;35061;47.664;9.166;2023-11-19T01:59:52;101719.58;;;8.22;100.00
18755;BME280;35061;47.664;9.166;2023-11-19T02:02:21;101714.67;;;8.23;100.00
18755;BME280;35061;47.664;9.166;2023-11-19T02:04:51;101718.66;;;8.26;100.00
18755;BME280;35061;47.664;9.166;2023-11-19T02:07:20;101699.95;;;8.24;100.00
18755;BME280;35061;47.664;9.166;2023-11-19T02:09:48;101697.80;;;8.29;100.00
18755;BME280;35061;47.664;9.166;2023-11-19T02:12:16;101689.59;;;8.31;100.00
18755;BME280;35061;47.664;9.166;2023-11-19T02:14:44;101686.61;;;8.34;100.00
18755;BME280;35061;47.664;9.166;2023-11-19T02:17:31;101681.25;;;8.36;100.00
18755;BME280;35061;47.664;9.166;2023-11-19T02:19:59;101676.67;;;8.39;100.00
18755;BME280;35061;47.664;9.166;2023-11-19T02:22:28;101684.00;;;8.40;100.00
18755;BME280;35061;47.664;9.166;2023-11-19T02:25:06;101664.77;;;8.41;100.00
18755;BME280;35061;47.664;9.166;2023-11-19T02:30:25;101644.23;;;8.46;100.00
18755;BME280;35061;47.664;9.166;2023-11-19T02:32:56;101642.17;;;8.46;100.00
18755;BME280;35061;47.664;9.166;2023-11-19T02:35:29;101645.51;;;8.45;100.00
18755;BME280;35061;47.664;9.166;2023-11-19T02:37:59;101663.40;;;8.45;100.00
18755;BME280;35061;47.664;9.166;2023-11-19T02:40:28;101659.31;;;8.46;100.00
18755;BME280;35061;47.664;9.166;2023-11-19T02:42:56;101657.70;;;8.45;100.00
18755;BME280;35061;47.664;9.166;2023-11-19T02:45:27;101658.52;;;8.46;100.00
18755;BME280;35061;47.664;9.166;2023-11-19T02:47:55;101661.37;;;8.46;100.00
18755;BME280;35061;47.664;9.166;2023-11-19T02:50:25;101659.18;;;8.50;100.00
18755;BME280;35061;47.664;9.166;2023-11-19T02:52:54;101659.18;;;8.50;100.00
18755;BME280;35061;47.664;9.166;2023-11-19T02:55:24;101665.75;;;8.50;100.00
18755;BME280;35061;47.664;9.166;2023-11-19T02:57:53;101665.75;;;8.50;100.00
18755;BME280;35061;47.664;9.166;2023-11-19T03:00:22;101667.87;;;8.46;100.00
18755;BME280;35061;47.664;9.166;2023-11-19T03:02:59;101661.83;;;8.44;100.00
18755;BME280;35061;47.664;9.166;2023-11-19T03:05:33;101667.29;;;8.38;100.00
18755;BME280;35061;47.664;9.166;2023-11-19T03:08:01;101653.13;;;8.35;100.00
18755;BME280;35061;47.664;9.166;2023-11-19T03:10:29;101652.48;;;8.31;100.00
18755;BME280;35061;47.664;9.166;2023-11-19T03:12:57;101658.62;;;8.29;100.00
18755;BME280;35061;47.664;9.166;2023-11-19T03:15:25;101656.20;;;8.28;100.00
18755;BME280;35061;47.664;9.166;2023-11-19T03:17:53;101653.85;;;8.26;100.00
18755;BME280;35061;47.664;9.166;2023-11-19T03:20:22;101646.16;;;8.23;100.00
18755;BME280;35061;47.664;9.166;2023-11-19T03:22:51;101651.56;;;8.21;100.00
18755;BME280;35061;47.664;9.166;2023-11-19T03:25:20;101643.45;;;8.19;100.00
18755;BME280;35061;47.664;9.166;2023-11-19T03:27:48;101639.00;;;8.18;100.00
18755;BME280;35061;47.664;9.166;2023-11-19T03:30:16;101643.09;;;8.17;100.00
18755;BME280;35061;47.664;9.166;2023-11-19T03:32:45;101658.75;;;8.13;100.00
18755;BME280;35061;47.664;9.166;2023-11-19T03:35:13;101649.04;;;8.10;100.00
18755;BME280;35061;47.664;9.166;2023-11-19T03:37:41;101658.16;;;8.05;100.00
18755;BME280;35061;47.664;9.166;2023-11-19T03:40:11;101651.79;;;8.01;100.00
18755;BME280;35061;47.664;9.166;2023-11-19T03:42:42;101662.74;;;8.02;100.00
18755;BME280;35061;47.664;9.166;2023-11-19T03:45:10;101657.48;;;8.01;100.00
18755;BME280;35061;47.664;9.166;2023-11-19T03:47:38;101657.48;;;8.01;100.00
18755;BME280;35061;47.664;9.166;2023-11-19T03:50:07;101663.20;;;8.01;100.00
18755;BME280;35061;47.664;9.166;2023-11-19T03:52:37;101670.59;;;7.98;100.00
18755;BME280;35061;47.664;9.166;2023-11-19T03:55:08;101671.51;;;7.95;100.00
18755;BME280;35061;47.664;9.166;2023-11-19T03:57:36;101679.62;;;7.96;100.00
18755;BME280;35061;47.664;9.166;2023-11-19T04:00:05;101679.98;;;7.99;100.00
18755;BME280;35061;47.664;9.166;2023-11-19T04:02:37;101669.34;;;7.99;100.00
18755;BME280;35061;47.664;9.166;2023-11-19T04:05:05;101681.55;;;8.00;100.00
18755;BME280;35061;47.664;9.166;2023-11-19T04:07:34;101679.06;;;8.02;100.00
18755;BME280;35061;47.664;9.166;2023-11-19T04:10:02;101665.59;;;8.02;100.00
18755;BME280;35061;47.664;9.166;2023-11-19T04:12:30;101672.88;;;8.03;100.00
18755;BME280;35061;47.664;9.166;2023-11-19T04:14:58;101674.02;;;8.06;100.00
18755;BME280;35061;47.664;9.166;2023-11-19T04:17:27;101678.38;;;8.10;100.00
18755;BME280;35061;47.664;9.166;2023-11-19T04:19:56;101681.58;;;8.13;100.00
18755;BME280;35061;47.664;9.166;2023-11-19T04:22:24;101685.57;;;8.15;100.00
18755;BME280;35061;47.664;9.166;2023-11-19T04:24:52;101696.52;;;8.17;100.00
18755;BME280;35061;47.664;9.166;2023-11-19T04:27:20;101695.28;;;8.18;100.00
18755;BME280;35061;47.664;9.166;2023-11-19T04:29:47;101694.36;;;8.21;100.00
18755;BME280;35061;47.664;9.166;2023-11-19T04:32:16;101695.15;;;8.21;100.00
18755;BME280;35061;47.664;9.166;2023-11-19T04:34:44;101687.76;;;8.24;100.00
18755;BME280;35061;47.664;9.166;2023-11-19T04:37:12;101684.42;;;8.26;100.00
18755;BME280;35061;47.664;9.166;2023-11-19T04:39:40;101693.32;;;8.28;100.00
18755;BME280;35061;47.664;9.166;2023-11-19T04:42:08;101678.60;;;8.29;100.00
18755;BME280;35061;47.664;9.166;2023-11-19T04:44:36;101686.38;;;8.29;100.00
18755;BME280;35061;47.664;9.166;2023-11-19T04:47:04;101695.61;;;8.33;100.00
18755;BME280;35061;47.664;9.166;2023-11-19T04:49:32;101686.61;;;8.34;100.00
18755;BME280;35061;47.664;9.166;2023-11-19T04:52:00;101682.04;;;8.37;100.00
18755;BME280;35061;47.664;9.166;2023-11-19T04:54:28;101698.71;;;8.38;100.00
18755;BME280;35061;47.664;9.166;2023-11-19T04:56:56;101688.45;;;8.41;100.00
18755;BME280;35061;47.664;9.166;2023-11-19T04:59:24;101684.65;;;8.44;100.00
18755;BME280;35061;47.664;9.166;2023-11-19T05:01:52;101678.02;;;8.47;100.00
18755;BME280;35061;47.664;9.166;2023-11-19T05:04:20;101673.89;;;8.48;100.00
18755;BME280;35061;47.664;9.166;2023-11-19T05:06:48;101678.34;;;8.49;100.00
18755;BME280;35061;47.664;9.166;2023-11-19T05:09:19;101671.44;;;8.50;100.00
18755;BME280;35061;47.664;9.166;2023-11-19T05:11:47;101671.44;;;8.50;100.00
18755;BME280;35061;47.664;9.166;2023-11-19T05:14:17;101673.04;;;8.51;100.00
18755;BME280;35061;47.664;9.166;2023-11-19T05:16:49;101671.31;;;8.54;100.00
18755;BME280;35061;47.664;9.166;2023-11-19T05:19:17;101682.72;;;8.54;100.00
18755;BME280;35061;47.664;9.166;2023-11-19T05:21:46;101686.05;;;8.52;100.00
18755;BME280;35061;47.664;9.166;2023-11-19T05:24:14;101698.26;;;8.53;100.00
18755;BME280;35061;47.664;9.166;2023-11-19T05:26:42;101692.11;;;8.55;100.00
18755;BME280;35061;47.664;9.166;2023-11-19T05:29:13;101682.72;;;8.54;100.00
18755;BME280;35061;47.664;9.166;2023-11-19T05:31:41;101678.14;;;8.57;100.00
18755;BME280;35061;47.664;9.166;2023-11-19T05:34:10;101684.20;;;8.59;100.00
18755;BME280;35061;47.664;9.166;2023-11-19T05:36:39;101678.87;;;8.61;100.00
18755;BME280;35061;47.664;9.166;2023-11-19T05:39:07;101671.08;;;8.61;100.00
18755;BME280;35061;47.664;9.166;2023-11-19T05:41:36;101666.50;;;8.64;100.00
18755;BME280;35061;47.664;9.166;2023-11-19T05:44:04;101655.09;;;8.64;100.00
18755;BME280;35061;47.664;9.166;2023-11-19T05:46:32;101640.34;;;8.65;100.00
18755;BME280;35061;47.664;9.166;2023-11-19T05:49:00;101645.61;;;8.67;100.00
18755;BME280;35061;47.664;9.166;2023-11-19T05:51:31;101654.37;;;8.73;100.00
18755;BME280;35061;47.664;9.166;2023-11-19T05:54:01;101662.02;;;8.76;100.00
18755;BME280;35061;47.664;9.166;2023-11-19T05:56:29;101659.05;;;8.79;100.00
18755;BME280;35061;47.664;9.166;2023-11-19T05:59:00;101662.58;;;8.84;100.00
18755;BME280;35061;47.664;9.166;2023-11-19T06:01:46;101665.33;;;8.87;100.00
18755;BME280;35061;47.664;9.166;2023-11-19T06:04:14;101668.40;;;8.93;100.00
18755;BME280;35061;47.664;9.166;2023-11-19T06:06:42;101676.80;;;8.97;100.00
18755;BME280;35061;47.664;9.166;2023-11-19T06:09:10;101679.55;;;9.00;100.00
18755;BME280;35061;47.664;9.166;2023-11-19T06:11:41;101680.23;;;9.04;100.00
18755;BME280;35061;47.664;9.166;2023-11-19T06:14:09;101679.32;;;9.07;100.00
18755;BME280;35061;47.664;9.166;2023-11-19T06:16:37;101687.30;;;9.13;100.00
18755;BME280;35061;47.664;9.166;2023-11-19T06:19:07;101680.66;;;9.16;100.00
18755;BME280;35061;47.664;9.166;2023-11-19T06:21:36;101671.96;;;9.19;100.00
18755;BME280;35061;47.664;9.166;2023-11-19T06:24:07;101673.89;;;9.23;100.00
18755;BME280;35061;47.664;9.166;2023-11-19T06:26:36;101681.55;;;9.26;100.00
18755;BME280;35061;47.664;9.166;2023-11-19T06:29:04;101680.27;;;9.27;100.00
18755;BME280;35061;47.664;9.166;2023-11-19T06:31:32;101677.30;;;9.30;100.00
18755;BME280;35061;47.664;9.166;2023-11-19T06:34:00;101679.19;;;9.33;100.00
18755;BME280;35061;47.664;9.166;2023-11-19T06:36:28;101678.30;;;9.37;100.00
18755;BME280;35061;47.664;9.166;2023-11-19T06:38:56;101667.52;;;9.41;100.00
18755;BME280;35061;47.664;9.166;2023-11-19T06:41:24;101672.65;;;9.46;100.00
18755;BME280;35061;47.664;9.166;2023-11-19T06:43:52;101666.80;;;9.49;100.00
18755;BME280;35061;47.664;9.166;2023-11-19T06:46:21;101674.45;;;9.53;100.00
18755;BME280;35061;47.664;9.166;2023-11-19T06:48:49;101667.78;;;9.56;100.00
18755;BME280;35061;47.664;9.166;2023-11-19T06:51:18;101666.08;;;9.58;100.00
18755;BME280;35061;47.664;9.166;2023-11-19T06:53:46;101674.84;;;9.64;100.00
18755;BME280;35061;47.664;9.166;2023-11-19T06:56:24;101667.05;;;9.64;100.00
18755;BME280;35061;47.664;9.166;2023-11-19T06:58:52;101678.24;;;9.72;100.00
18755;BME280;35061;47.664;9.166;2023-11-19T07:01:21;101679.02;;;9.72;100.00
18755;BME280;35061;47.664;9.166;2023-11-19T07:03:49;101686.55;;;9.79;100.00
18755;BME280;35061;47.664;9.166;2023-11-19T07:06:19;101681.15;;;9.81;100.00
18755;BME280;35061;47.664;9.166;2023-11-19T07:09:01;101682.62;;;9.86;100.00
18755;BME280;35061;47.664;9.166;2023-11-19T07:11:41;101690.70;;;9.87;100.00
18755;BME280;35061;47.664;9.166;2023-11-19T07:14:09;101682.33;;;9.93;100.00
18755;BME280;35061;47.664;9.166;2023-11-19T07:16:37;101693.97;;;9.99;100.00
18755;BME280;35061;47.664;9.166;2023-11-19T07:19:06;101690.96;;;10.02;100.00
18755;BME280;35061;47.664;9.166;2023-11-19T07:21:34;101695.28;;;10.07;100.00
18755;BME280;35061;47.664;9.166;2023-11-19T07:24:03;101690.21;;;10.11;100.00
18755;BME280;35061;47.664;9.166;2023-11-19T07:26:34;101696.59;;;10.15;100.00
18755;BME280;35061;47.664;9.166;2023-11-19T07:29:02;101693.12;;;10.21;100.00
18755;BME280;35061;47.664;9.166;2023-11-19T07:31:30;101697.93;;;10.24;100.00
18755;BME280;35061;47.664;9.166;2023-11-19T07:33:58;101692.83;;;10.28;100.00
18755;BME280;35061;47.664;9.166;2023-11-19T07:36:26;101699.23;;;10.32;100.00
18755;BME280;35061;47.664;9.166;2023-11-19T07:38:54;101701.95;;;10.36;100.00
18755;BME280;35061;47.664;9.166;2023-11-19T07:41:27;101700.51;;;10.40;100.00
18755;BME280;35061;47.664;9.166;2023-11-19T07:43:55;101700.41;;;10.44;100.00
18755;BME280;35061;47.664;9.166;2023-11-19T07:46:23;101695.80;;;10.46;100.00
18755;BME280;35061;47.664;9.166;2023-11-19T07:48:53;101688.67;;;10.51;100.00
18755;BME280;35061;47.664;9.166;2023-11-19T07:51:21;101694.56;;;10.57;100.00
18755;BME280;35061;47.664;9.166;2023-11-19T07:53:52;101698.71;;;10.56;100.00
18755;BME280;35061;47.664;9.166;2023-11-19T07:56:22;101706.20;;;10.63;100.00
18755;BME280;35061;47.664;9.166;2023-11-19T07:58:50;101704.80;;;10.67;100.00
18755;BME280;35061;47.664;9.166;2023-11-19T08:01:19;101697.34;;;10.70;100.00
18755;BME280;35061;47.664;9.166;2023-11-19T08:03:47;101704.63;;;10.71;100.00
18755;BME280;35061;47.664;9.166;2023-11-19T08:06:18;101703.23;;;10.75;100.00
18755;BME280;35061;47.664;9.166;2023-11-19T08:08:46;101718.70;;;10.78;100.00
18755;BME280;35061;47.664;9.166;2023-11-19T08:11:18;101708.33;;;10.81;100.00
18755;BME280;35061;47.664;9.166;2023-11-19T08:13:50;101715.48;;;10.85;100.00
18755;BME280;35061;47.664;9.166;2023-11-19T08:16:18;101716.30;;;10.86;100.00
18755;BME280;35061;47.664;9.166;2023-11-19T08:18:46;101723.95;;;10.89;100.00
18755;BME280;35061;47.664;9.166;2023-11-19T08:21:14;101721.41;;;10.91;100.00
18755;BME280;35061;47.664;9.166;2023-11-19T08:23:42;101723.80;;;10.93;100.00
18755;BME280;35061;47.664;9.166;2023-11-19T08:26:10;101724.12;;;10.95;100.00
18755;BME280;35061;47.664;9.166;2023-11-19T08:28:39;101722.39;;;10.97;100.00
18755;BME280;35061;47.664;9.166;2023-11-19T08:31:07;101707.54;;;10.99;100.00
18755;BME280;35061;47.664;9.166;2023-11-19T08:33:35;101719.38;;;11.01;100.00
18755;BME280;35061;47.664;9.166;2023-11-19T08:36:03;101715.06;;;11.06;100.00
18755;BME280;35061;47.664;9.166;2023-11-19T08:38:35;101723.04;;;11.11;100.00
18755;BME280;35061;47.664;9.166;2023-11-19T08:41:03;101711.89;;;11.13;100.00
18755;BME280;35061;47.664;9.166;2023-11-19T08:43:32;101727.20;;;11.19;100.00
18755;BME280;35061;47.664;9.166;2023-11-19T08:46:00;101723.04;;;11.20;100.00
18755;BME280;35061;47.664;9.166;2023-11-19T08:48:28;101716.66;;;11.25;100.00
18755;BME280;35061;47.664;9.166;2023-11-19T08:50:56;101723.53;;;11.28;100.00
18755;BME280;35061;47.664;9.166;2023-11-19T08:53:23;101723.37;;;11.31;100.00
18755;BME280;35061;47.664;9.166;2023-11-19T08:55:51;101716.37;;;11.33;100.00
18755;BME280;35061;47.664;9.166;2023-11-19T08:58:20;101726.09;;;11.35;100.00
18755;BME280;35061;47.664;9.166;2023-11-19T09:00:48;101728.80;;;11.39;100.00
18755;BME280;35061;47.664;9.166;2023-11-19T09:03:18;101734.06;;;11.40;100.00
18755;BME280;35061;47.664;9.166;2023-11-19T09:05:48;101724.52;;;11.43;100.00
18755;BME280;35061;47.664;9.166;2023-11-19T09:08:16;101732.95;;;11.47;100.00
18755;BME280;35061;47.664;9.166;2023-11-19T09:10:44;101744.23;;;11.51;100.00
18755;BME280;35061;47.664;9.166;2023-11-19T09:13:13;101736.28;;;11.55;100.00
18755;BME280;35061;47.664;9.166;2023-11-19T09:15:44;101739.33;;;11.61;100.00
18755;BME280;35061;47.664;9.166;2023-11-19T09:18:12;101747.77;;;11.64;100.00
18755;BME280;35061;47.664;9.166;2023-11-19T09:20:40;101738.84;;;11.71;100.00
18755;BME280;35061;47.664;9.166;2023-11-19T09:23:08;101740.41;;;11.72;100.00
18755;BME280;35061;47.664;9.166;2023-11-19T09:25:36;101746.00;;;11.76;100.00
18755;BME280;35061;47.664;9.166;2023-11-19T09:28:10;101746.29;;;11.78;100.00
18755;BME280;35061;47.664;9.166;2023-11-19T09:30:42;101744.72;;;11.77;100.00
18755;BME280;35061;47.664;9.166;2023-11-19T09:33:10;101759.41;;;11.79;100.00
18755;BME280;35061;47.664;9.166;2023-11-19T09:35:38;101752.99;;;11.94;100.00
18755;BME280;35061;47.664;9.166;2023-11-19T09:38:06;101755.71;;;12.16;100.00
18755;BME280;35061;47.664;9.166;2023-11-19T09:40:34;101766.08;;;12.13;100.00
18755;BME280;35061;47.664;9.166;2023-11-19T09:43:02;101753.16;;;12.18;100.00
18755;BME280;35061;47.664;9.166;2023-11-19T09:45:32;101756.33;;;12.20;100.00
18755;BME280;35061;47.664;9.166;2023-11-19T09:48:08;101760.94;;;12.18;100.00
18755;BME280;35061;47.664;9.166;2023-11-19T09:50:36;101765.78;;;12.11;100.00
18755;BME280;35061;47.664;9.166;2023-11-19T09:53:05;101760.19;;;12.08;100.00
18755;BME280;35061;47.664;9.166;2023-11-19T09:55:34;101765.62;;;12.06;100.00
18755;BME280;35061;47.664;9.166;2023-11-19T09:58:02;101757.97;;;12.03;100.00
18755;BME280;35061;47.664;9.166;2023-11-19T10:00:31;101765.78;;;12.02;100.00
18755;BME280;35061;47.664;9.166;2023-11-19T10:03:00;101755.91;;;12.03;100.00
18755;BME280;35061;47.664;9.166;2023-11-19T10:05:28;101750.58;;;12.01;100.00
18755;BME280;35061;47.664;9.166;2023-11-19T10:07:56;101741.19;;;12.01;100.00
18755;BME280;35061;47.664;9.166;2023-11-19T10:10:24;101727.20;;;12.03;100.00
18755;BME280;35061;47.664;9.166;2023-11-19T10:12:54;101729.09;;;12.06;100.00
18755;BME280;35061;47.664;9.166;2023-11-19T10:15:24;101716.30;;;12.07;100.00
18755;BME280;35061;47.664;9.166;2023-11-19T10:17:57;101721.08;;;12.10;100.00
18755;BME280;35061;47.664;9.166;2023-11-19T10:20:25;101713.10;;;12.14;100.00
18755;BME280;35061;47.664;9.166;2023-11-19T10:22:54;101695.70;;;12.18;100.00
18755;BME280;35061;47.664;9.166;2023-11-19T10:25:27;101687.56;;;12.26;100.00
18755;BME280;35061;47.664;9.166;2023-11-19T10:27:56;101679.09;;;12.22;100.00
18755;BME280;35061;47.664;9.166;2023-11-19T10:30:29;101695.31;;;12.35;100.00
18755;BME280;35061;47.664;9.166;2023-11-19T10:33:05;101699.43;;;12.43;100.00
18755;BME280;35061;47.664;9.166;2023-11-19T10:35:53;101705.16;;;12.52;100.00
18755;BME280;35061;47.664;9.166;2023-11-19T10:38:25;101691.71;;;12.59;100.00
18755;BME280;35061;47.664;9.166;2023-11-19T10:40:54;101689.88;;;12.70;100.00
18755;BME280;35061;47.664;9.166;2023-11-19T10:43:23;101692.40;;;12.78;100.00
18755;BME280;35061;47.664;9.166;2023-11-19T10:45:51;101689.16;;;12.85;100.00
18755;BME280;35061;47.664;9.166;2023-11-19T10:48:20;101683.73;;;12.87;100.00
18755;BME280;35061;47.664;9.166;2023-11-19T10:50:53;101679.38;;;12.92;100.00
18755;BME280;35061;47.664;9.166;2023-11-19T10:53:23;101679.65;;;13.03;100.00
18755;BME280;35061;47.664;9.166;2023-11-19T10:55:55;101676.70;;;13.12;100.00
18755;BME280;35061;47.664;9.166;2023-11-19T10:58:28;101669.48;;;13.17;100.00
18755;BME280;35061;47.664;9.166;2023-11-19T11:01:02;101673.92;;;13.18;100.00
18755;BME280;35061;47.664;9.166;2023-11-19T11:03:36;101662.09;;;13.16;100.00
18755;BME280;35061;47.664;9.166;2023-11-19T11:06:08;101655.29;;;13.14;100.00
18755;BME280;35061;47.664;9.166;2023-11-19T11:08:37;101671.34;;;13.20;100.00
18755;BME280;35061;47.664;9.166;2023-11-19T11:11:07;101647.54;;;13.20;100.00
18755;BME280;35061;47.664;9.166;2023-11-19T11:13:36;101652.12;;;13.26;100.00
18755;BME280;35061;47.664;9.166;2023-11-19T11:16:06;101645.80;;;13.37;100.00
18755;BME280;35061;47.664;9.166;2023-11-19T11:18:35;101646.10;;;13.39;100.00
18755;BME280;35061;47.664;9.166;2023-11-19T11:21:15;101643.71;;;13.38;100.00
18755;BME280;35061;47.664;9.166;2023-11-19T11:24:10;101638.64;;;13.33;100.00
18755;BME280;35061;47.664;9.166;2023-11-19T11:27:37;101632.30;;;13.29;100.00
18755;BME280;35061;47.664;9.166;2023-11-19T11:29:47;101624.35;;;13.23;100.00
18755;BME280;35061;47.664;9.166;2023-11-19T11:32:35;101629.91;;;13.27;100.00
18755;BME280;35061;47.664;9.166;2023-11-19T11:38:07;101644.17;;;13.46;100.00
18755;BME280;35061;47.664;9.166;2023-11-19T11:40:35;101644.27;;;13.51;100.00
18755;BME280;35061;47.664;9.166;2023-11-19T11:49:01;101648.42;;;13.50;100.00
18755;BME280;35061;47.664;9.166;2023-11-19T11:57:19;101651.52;;;13.62;100.00
18755;BME280;35061;47.664;9.166;2023-11-19T11:59:50;101649.11;;;13.60;100.00
18755;BME280;35061;47.664;9.166;2023-11-19T12:02:22;101652.38;;;13.53;100.00
18755;BME280;35061;47.664;9.166;2023-11-19T12:04:51;101655.77;;;13.51;100.00
18755;BME280;35061;47.664;9.166;2023-11-19T12:07:21;101639.00;;;13.50;100.00
18755;BME280;35061;47.664;9.166;2023-11-19T12:10:06;101651.30;;;13.50;100.00
18755;BME280;35061;47.664;9.166;2023-11-19T12:12:35;101641.59;;;13.48;100.00
18755;BME280;35061;47.664;9.166;2023-11-19T12:15:07;101635.34;;;13.49;100.00
18755;BME280;35061;47.664;9.166;2023-11-19T12:20:12;101641.78;;;13.59;100.00
18755;BME280;35061;47.664;9.166;2023-11-19T12:22:41;101632.95;;;13.63;100.00
18755;BME280;35061;47.664;9.166;2023-11-19T12:25:11;101631.97;;;13.66;100.00
18755;BME280;35061;47.664;9.166;2023-11-19T12:27:45;101626.58;;;13.59;100.00
18755;BME280;35061;47.664;9.166;2023-11-19T12:30:25;101628.41;;;13.56;100.00
18755;BME280;35061;47.664;9.166;2023-11-19T12:32:54;101630.17;;;13.53;100.00
18755;BME280;35061;47.664;9.166;2023-11-19T12:35:26;101634.52;;;13.49;100.00
18755;BME280;35061;47.664;9.166;2023-11-19T12:37:57;101627.39;;;13.44;100.00
18755;BME280;35061;47.664;9.166;2023-11-19T12:40:25;101627.43;;;13.35;100.00
18755;BME280;35061;47.664;9.166;2023-11-19T12:42:54;101623.34;;;13.26;100.00
18755;BME280;35061;47.664;9.166;2023-11-19T12:45:23;101628.80;;;13.24;100.00
18755;BME280;35061;47.664;9.166;2023-11-19T12:48:09;101623.05;;;13.24;100.00
18755;BME280;35061;47.664;9.166;2023-11-19T12:50:56;101626.94;;;13.21;100.00
18755;BME280;35061;47.664;9.166;2023-11-19T12:53:26;101609.08;;;13.17;100.00
18755;BME280;35061;47.664;9.166;2023-11-19T12:55:54;101618.66;;;13.14;100.00
18755;BME280;35061;47.664;9.166;2023-11-19T12:58:35;101623.14;;;13.15;100.00
18755;BME280;35061;47.664;9.166;2023-11-19T13:01:07;101623.83;;;13.10;100.00
18755;BME280;35061;47.664;9.166;2023-11-19T13:03:37;101618.07;;;13.10;100.00
18755;BME280;35061;47.664;9.166;2023-11-19T13:06:11;101615.78;;;13.14;100.00
18755;BME280;35061;47.664;9.166;2023-11-19T13:08:41;101623.47;;;13.17;100.00
18755;BME280;35061;47.664;9.166;2023-11-19T13:11:09;101610.45;;;13.22;100.00
18755;BME280;35061;47.664;9.166;2023-11-19T13:14:02;101600.16;;;13.30;100.00
18755;BME280;35061;47.664;9.166;2023-11-19T13:16:37;101593.22;;;13.37;100.00
18755;BME280;35061;47.664;9.166;2023-11-19T13:19:05;101590.09;;;13.50;100.00